Miles City, MT (59301)

4:26 AM MDT on June 21, 2018 (GMT -0600)
Miles City MT | | Change Station
Active Advisory: Flood Warning

Elev 2356 ft 46.41 °N, 105.83 °W | Updated 7 seconds ago

Clear
Clear
57.7 °F
Feels Like 57.7 °F
N
0
Wind Variable Wind from South
Gusts 0.0 mph

Today
High -- | Low -- °F
--% Chance of Precip.
Yesterday
High -- | Low -- °F
Precip. -- in
Pressure 30.02 in
Visibility 10.0 miles
Clouds Clear
Dew Point 53 °F
Humidity 85%
Rainfall 0.00 in
Snow Depth Not available.
5:10 AM 8:59 PM
First Quarter, 61% visible
METAR KMLS 210953Z AUTO 16006KT 10SM CLR 13/13 A3005 RMK AO2 SLP165 T01280128
Pressure 30.02 in
Visibility 10.0 miles
Clouds Clear
Dew Point 53 °F
Humidity 85%
Rainfall 0.00 in
Snow Depth Not available.
5:10 AM 8:59 PM
First Quarter, 61% visible
METAR KMLS 210953Z AUTO 16006KT 10SM CLR 13/13 A3005 RMK AO2 SLP165 T01280128

Get Your Daily Forecast Email!

Thanks for signing up!

Be on the lookout for a verification email in your inbox.

You'll start receiving severe weather alerts in your inbox..

×

10-Day Weather Forecast

Almanac

Astronomy

Jun. 21, 2018 Rise Set
Actual Time
Civil Twilight
Nautical Twilight
Astronomical Twilight
Moon
Length of Visible Light
Length of Day
Tomorrow will be .
, % of the Moon is Illuminated

Today's Extremes

State Highs State Lows

Community

WunderPhotos

Category 6

Welcome to Category 6. This is the collective home for Weather Underground's featured writeups by Dr. Jeff Masters (right), Bob Henson (left), Chris Burt, and other regular contributors.

Nearby

Air Quality

  Air Quality AQ Index Pollutant
Not available.

Snow Depth

Station Depth Elevation

Earthquake Activity

City Distance Mag. Time & Date
Minimum magnitude displayed is 2.5.

Coastal Water Temperatures

Place Temperature

Stations

Nearby Weather Stations

Station Location Temp. Windchill Dew Point Humidity Wind Precip. Elev Updated Type
                   

Watches & Warnings

Flood Warning
Issued: 11:00 AM MDT Jun. 20, 2018 – National Weather Service

The National Weather Service in Billings has issued a

* Flood Warning for
the Yellowstone river at Miles City affecting Custer County.
* From Thursday morning to Saturday morning... or until the warning is
cancelled.
* At 10 am Wednesday the stage was 11.6 feet.
* Flood stage is 13.0 feet.
* Minor flooding is forecast.
* Forecast... the river will rise above flood stage around 12 PM
Thursday and crest near 13.2 feet around 6 PM Thursday. The river
will fall below flood stage Friday morning.

             Flood observed forecast 12 PM
location stage stage day time Thu Fri Sat

Yellowstone river
Miles City 13.0 11.6 Wed 10 am 13.0 12.7 11.8




Lat... Lon 4665 10550 4638 10581 4625 10615 4636 10615
      4645 10587 4666 10560